F/V Adeline Stephen — FGUF — position and weather

sailwx.info

Track history (hours):
 
Tides and Currents Weather Stations Pressure Air Temp Water Temp Dewpoint Dewpoint Depression Visibility Wind Speed Wind Dir Waves Ship Positions

F/V Adeline Stephen

Last reported at 2016-Aug-24 13:29 UTC. Time now 2016-Aug-24 19:43 UTC.
Position N 46°59' W 004°15'.

Length 18 m.

Type: Fishing. MMSI: 228929000.

Date/timePositionNaut miles runAvg speedWind from/ knotsBaromVisibWave heightAir tempDewpointWater temp
2016-Aug-24 13:29N 46°59' W 004°15'11 9.3
2016-Aug-24 12:15N 47°07' W 004°03'9 8.7
2016-Aug-24 11:13N 47°13' W 003°53'16 9.4
2016-Aug-24 09:33N 47°27' W 003°42'9 9.2
2016-Aug-24 08:33N 47°35' W 003°36'8 8.5
2016-Aug-24 07:33N 47°40' W 003°27'  
2016-Aug-21 04:33N 47°44' W 003°22'0 0.0
2016-Aug-21 03:33N 47°44' W 003°22'0 0.0
2016-Aug-21 02:33N 47°44' W 003°22'0 0.0
2016-Aug-21 01:34N 47°44' W 003°22'0 0.0
2016-Aug-21 00:33N 47°44' W 003°22'3 3.4
2016-Aug-20 23:33N 47°41' W 003°25'9 8.5
2016-Aug-20 22:33N 47°36' W 003°35'  
2016-Aug-17 06:28N 46°10' W 004°36'57 1.3
2016-Aug-15 11:30N 45°17' W 004°11'2 2.4
2016-Aug-15 10:32N 45°19' W 004°12'32 1.5
2016-Aug-14 13:31N 44°49' W 003°54'  
Track history (hours):
 
Tides and Currents Weather Stations Pressure Air Temp Water Temp Dewpoint Dewpoint Depression Visibility Wind Speed Wind Dir Waves Ship Positions

F/V Adeline Stephen

Last reported at 2016-Aug-24 13:29 UTC. Time now 2016-Aug-24 19:43 UTC.
Position N 46°59' W 004°15'.

Length 18 m.

Type: Fishing. MMSI: 228929000.

Date/timePositionNaut miles runAvg speedWind from/ knotsBaromVisibWave heightAir tempDewpointWater temp
2016-Aug-24 13:29N 46°59' W 004°15'11 9.3
2016-Aug-24 12:15N 47°07' W 004°03'9 8.7
2016-Aug-24 11:13N 47°13' W 003°53'16 9.4
2016-Aug-24 09:33N 47°27' W 003°42'9 9.2
2016-Aug-24 08:33N 47°35' W 003°36'8 8.5
2016-Aug-24 07:33N 47°40' W 003°27'  
2016-Aug-21 04:33N 47°44' W 003°22'0 0.0
2016-Aug-21 03:33N 47°44' W 003°22'0 0.0
2016-Aug-21 02:33N 47°44' W 003°22'0 0.0
2016-Aug-21 01:34N 47°44' W 003°22'0 0.0
2016-Aug-21 00:33N 47°44' W 003°22'3 3.4
2016-Aug-20 23:33N 47°41' W 003°25'9 8.5
2016-Aug-20 22:33N 47°36' W 003°35'  
2016-Aug-17 06:28N 46°10' W 004°36'57 1.3
2016-Aug-15 11:30N 45°17' W 004°11'2 2.4
2016-Aug-15 10:32N 45°19' W 004°12'32 1.5
2016-Aug-14 13:31N 44°49' W 003°54'  

Dump ship's entire track history